sensor_id;sensor_type;location;lat;lon;timestamp;pressure;altitude;pressure_sealevel;temperature;humidity
24230;BME280;12362;50.004;8.006;2023-07-13T00:01:50;100469.31;;;20.07;92.45
24230;BME280;12362;50.004;8.006;2023-07-13T00:04:21;100465.81;;;20.06;91.54
24230;BME280;12362;50.004;8.006;2023-07-13T00:06:48;100474.03;;;20.13;90.19
24230;BME280;12362;50.004;8.006;2023-07-13T00:09:15;100463.63;;;20.11;90.62
24230;BME280;12362;50.004;8.006;2023-07-13T00:11:42;100456.22;;;20.05;91.43
24230;BME280;12362;50.004;8.006;2023-07-13T00:14:09;100463.97;;;19.97;90.91
24230;BME280;12362;50.004;8.006;2023-07-13T00:16:36;100460.03;;;19.92;91.17
24230;BME280;12362;50.004;8.006;2023-07-13T00:19:03;100464.16;;;19.85;91.61
24230;BME280;12362;50.004;8.006;2023-07-13T00:21:28;100458.06;;;19.84;91.81
24230;BME280;12362;50.004;8.006;2023-07-13T00:23:54;100461.16;;;19.89;91.82
24230;BME280;12362;50.004;8.006;2023-07-13T00:26:19;100461.78;;;19.82;91.50
24230;BME280;12362;50.004;8.006;2023-07-13T00:28:45;100464.13;;;19.75;93.60
24230;BME280;12362;50.004;8.006;2023-07-13T00:31:12;100466.94;;;19.63;95.08
24230;BME280;12362;50.004;8.006;2023-07-13T00:33:37;100464.38;;;19.52;97.15
24230;BME280;12362;50.004;8.006;2023-07-13T00:36:03;100460.28;;;19.38;97.47
24230;BME280;12362;50.004;8.006;2023-07-13T00:38:29;100468.28;;;19.37;96.33
24230;BME280;12362;50.004;8.006;2023-07-13T00:40:55;100471.13;;;19.45;97.10
24230;BME280;12362;50.004;8.006;2023-07-13T00:43:23;100477.97;;;19.16;100.00
24230;BME280;12362;50.004;8.006;2023-07-13T00:48:24;100486.31;;;18.90;100.00
24230;BME280;12362;50.004;8.006;2023-07-13T00:50:53;100484.06;;;18.85;100.00
24230;BME280;12362;50.004;8.006;2023-07-13T00:53:21;100483.19;;;18.85;100.00
24230;BME280;12362;50.004;8.006;2023-07-13T00:55:48;100488.28;;;18.66;100.00
24230;BME280;12362;50.004;8.006;2023-07-13T00:58:15;100494.91;;;18.49;100.00
24230;BME280;12362;50.004;8.006;2023-07-13T01:00:41;100497.03;;;18.55;100.00
24230;BME280;12362;50.004;8.006;2023-07-13T01:03:07;100496.19;;;18.66;100.00
24230;BME280;12362;50.004;8.006;2023-07-13T01:05:33;100491.72;;;18.77;100.00
24230;BME280;12362;50.004;8.006;2023-07-13T01:08:01;100497.31;;;18.84;100.00
24230;BME280;12362;50.004;8.006;2023-07-13T01:10:27;100489.44;;;18.84;100.00
24230;BME280;12362;50.004;8.006;2023-07-13T01:12:53;100496.41;;;18.63;100.00
24230;BME280;12362;50.004;8.006;2023-07-13T01:15:38;100511.63;;;18.48;100.00
24230;BME280;12362;50.004;8.006;2023-07-13T01:18:07;100504.44;;;18.61;100.00
24230;BME280;12362;50.004;8.006;2023-07-13T01:20:33;100508.84;;;18.61;100.00
24230;BME280;12362;50.004;8.006;2023-07-13T01:23:11;100500.94;;;18.72;100.00
24230;BME280;12362;50.004;8.006;2023-07-13T01:25:38;100500.34;;;18.68;100.00
24230;BME280;12362;50.004;8.006;2023-07-13T01:28:06;100497.34;;;18.73;100.00
24230;BME280;12362;50.004;8.006;2023-07-13T01:30:34;100497.31;;;18.84;100.00
24230;BME280;12362;50.004;8.006;2023-07-13T01:33:01;100505.78;;;18.98;100.00
24230;BME280;12362;50.004;8.006;2023-07-13T01:35:27;100504.97;;;18.87;100.00
24230;BME280;12362;50.004;8.006;2023-07-13T01:37:53;100495.50;;;18.95;100.00
24230;BME280;12362;50.004;8.006;2023-07-13T01:40:19;100491.06;;;19.07;100.00
24230;BME280;12362;50.004;8.006;2023-07-13T01:42:45;100501.34;;;18.99;100.00
24230;BME280;12362;50.004;8.006;2023-07-13T01:45:11;100498.13;;;18.95;100.00
24230;BME280;12362;50.004;8.006;2023-07-13T01:47:37;100494.44;;;18.87;100.00
24230;BME280;12362;50.004;8.006;2023-07-13T01:50:02;100502.56;;;18.95;100.00
24230;BME280;12362;50.004;8.006;2023-07-13T01:52:28;100503.16;;;18.98;100.00
24230;BME280;12362;50.004;8.006;2023-07-13T01:54:54;100503.91;;;18.78;100.00
24230;BME280;12362;50.004;8.006;2023-07-13T01:57:19;100504.28;;;18.74;100.00
24230;BME280;12362;50.004;8.006;2023-07-13T01:59:45;100498.44;;;18.70;100.00
24230;BME280;12362;50.004;8.006;2023-07-13T02:02:10;100503.69;;;18.70;100.00
24230;BME280;12362;50.004;8.006;2023-07-13T02:04:36;100510.28;;;18.65;100.00
24230;BME280;12362;50.004;8.006;2023-07-13T02:07:01;100516.19;;;18.35;100.00
24230;BME280;12362;50.004;8.006;2023-07-13T02:09:28;100518.66;;;18.15;100.00
24230;BME280;12362;50.004;8.006;2023-07-13T02:11:53;100524.88;;;18.03;100.00
24230;BME280;12362;50.004;8.006;2023-07-13T02:14:19;100525.19;;;17.77;100.00
24230;BME280;12362;50.004;8.006;2023-07-13T02:16:44;100525.06;;;17.78;100.00
24230;BME280;12362;50.004;8.006;2023-07-13T02:19:10;100525.69;;;17.82;100.00
24230;BME280;12362;50.004;8.006;2023-07-13T02:21:35;100535.84;;;17.75;100.00
24230;BME280;12362;50.004;8.006;2023-07-13T02:24:01;100536.44;;;17.79;100.00
24230;BME280;12362;50.004;8.006;2023-07-13T02:26:26;100535.19;;;17.61;100.00
24230;BME280;12362;50.004;8.006;2023-07-13T02:28:53;100531.69;;;17.49;100.00
24230;BME280;12362;50.004;8.006;2023-07-13T02:31:19;100532.44;;;17.62;100.00
24230;BME280;12362;50.004;8.006;2023-07-13T02:33:45;100528.91;;;17.74;100.00
24230;BME280;12362;50.004;8.006;2023-07-13T02:36:11;100532.00;;;17.79;100.00
24230;BME280;12362;50.004;8.006;2023-07-13T02:38:36;100537.13;;;17.70;100.00
24230;BME280;12362;50.004;8.006;2023-07-13T02:41:03;100544.84;;;17.60;100.00
24230;BME280;12362;50.004;8.006;2023-07-13T02:43:29;100551.28;;;17.56;100.00
24230;BME280;12362;50.004;8.006;2023-07-13T02:45:55;100544.13;;;17.58;100.00
24230;BME280;12362;50.004;8.006;2023-07-13T02:48:20;100539.47;;;17.62;100.00
24230;BME280;12362;50.004;8.006;2023-07-13T02:50:46;100553.00;;;17.34;100.00
24230;BME280;12362;50.004;8.006;2023-07-13T02:53:11;100554.19;;;17.18;100.00
24230;BME280;12362;50.004;8.006;2023-07-13T02:55:37;100557.59;;;17.07;100.00
24230;BME280;12362;50.004;8.006;2023-07-13T02:58:03;100555.84;;;17.19;100.00
24230;BME280;12362;50.004;8.006;2023-07-13T03:00:28;100552.16;;;17.10;100.00
24230;BME280;12362;50.004;8.006;2023-07-13T03:02:54;100553.66;;;17.02;100.00
24230;BME280;12362;50.004;8.006;2023-07-13T03:05:22;100559.63;;;17.04;100.00
24230;BME280;12362;50.004;8.006;2023-07-13T03:07:47;100560.34;;;16.70;100.00
24230;BME280;12362;50.004;8.006;2023-07-13T03:10:13;100560.75;;;16.76;100.00
24230;BME280;12362;50.004;8.006;2023-07-13T03:12:44;100564.63;;;16.71;100.00
24230;BME280;12362;50.004;8.006;2023-07-13T03:15:17;100560.91;;;16.62;100.00
24230;BME280;12362;50.004;8.006;2023-07-13T03:17:44;100558.16;;;16.64;100.00
24230;BME280;12362;50.004;8.006;2023-07-13T03:20:10;100555.63;;;16.75;100.00
24230;BME280;12362;50.004;8.006;2023-07-13T03:22:35;100550.91;;;16.80;100.00
24230;BME280;12362;50.004;8.006;2023-07-13T03:25:01;100557.56;;;16.84;100.00
24230;BME280;12362;50.004;8.006;2023-07-13T03:27:27;100548.59;;;16.99;100.00
24230;BME280;12362;50.004;8.006;2023-07-13T03:29:53;100552.03;;;17.12;100.00
24230;BME280;12362;50.004;8.006;2023-07-13T03:32:18;100563.31;;;17.25;100.00
24230;BME280;12362;50.004;8.006;2023-07-13T03:34:44;100565.41;;;17.20;100.00
24230;BME280;12362;50.004;8.006;2023-07-13T03:37:10;100564.88;;;17.04;100.00
24230;BME280;12362;50.004;8.006;2023-07-13T03:39:36;100563.75;;;16.95;100.00
24230;BME280;12362;50.004;8.006;2023-07-13T03:42:02;100558.69;;;16.56;100.00
24230;BME280;12362;50.004;8.006;2023-07-13T03:44:27;100562.63;;;16.39;100.00
24230;BME280;12362;50.004;8.006;2023-07-13T03:46:55;100561.84;;;16.49;100.00
24230;BME280;12362;50.004;8.006;2023-07-13T03:49:20;100566.50;;;16.33;100.00
24230;BME280;12362;50.004;8.006;2023-07-13T03:51:46;100569.09;;;16.45;100.00
24230;BME280;12362;50.004;8.006;2023-07-13T03:54:12;100572.16;;;16.40;100.00
24230;BME280;12362;50.004;8.006;2023-07-13T03:56:37;100574.34;;;16.45;100.00
24230;BME280;12362;50.004;8.006;2023-07-13T03:59:05;100579.34;;;16.61;100.00
24230;BME280;12362;50.004;8.006;2023-07-13T04:01:31;100586.75;;;16.92;100.00
24230;BME280;12362;50.004;8.006;2023-07-13T04:03:57;100577.19;;;17.14;100.00
24230;BME280;12362;50.004;8.006;2023-07-13T04:06:28;100585.31;;;17.11;100.00
24230;BME280;12362;50.004;8.006;2023-07-13T04:08:57;100574.69;;;17.13;100.00
24230;BME280;12362;50.004;8.006;2023-07-13T04:11:26;100587.69;;;16.91;100.00
24230;BME280;12362;50.004;8.006;2023-07-13T04:13:52;100599.13;;;16.90;100.00
24230;BME280;12362;50.004;8.006;2023-07-13T04:16:18;100600.88;;;16.89;100.00
24230;BME280;12362;50.004;8.006;2023-07-13T04:18:45;100601.22;;;16.85;100.00
24230;BME280;12362;50.004;8.006;2023-07-13T04:21:11;100599.88;;;16.79;100.00
24230;BME280;12362;50.004;8.006;2023-07-13T04:23:38;100598.31;;;16.77;100.00
24230;BME280;12362;50.004;8.006;2023-07-13T04:26:04;100594.28;;;16.96;100.00
24230;BME280;12362;50.004;8.006;2023-07-13T04:28:29;100602.28;;;17.18;100.00
24230;BME280;12362;50.004;8.006;2023-07-13T04:30:56;100593.53;;;17.30;100.00
24230;BME280;12362;50.004;8.006;2023-07-13T04:33:22;100596.22;;;17.41;100.00
24230;BME280;12362;50.004;8.006;2023-07-13T04:35:52;100590.28;;;17.50;100.00
24230;BME280;12362;50.004;8.006;2023-07-13T04:38:27;100589.03;;;17.66;100.00
24230;BME280;12362;50.004;8.006;2023-07-13T04:40:55;100587.72;;;17.72;100.00
24230;BME280;12362;50.004;8.006;2023-07-13T04:43:21;100587.41;;;17.76;100.00
24230;BME280;12362;50.004;8.006;2023-07-13T04:45:47;100583.94;;;17.76;100.00
24230;BME280;12362;50.004;8.006;2023-07-13T04:48:12;100589.84;;;17.56;100.00
24230;BME280;12362;50.004;8.006;2023-07-13T04:50:38;100595.66;;;17.48;100.00
24230;BME280;12362;50.004;8.006;2023-07-13T04:53:04;100594.75;;;17.60;100.00
24230;BME280;12362;50.004;8.006;2023-07-13T04:55:30;100595.75;;;17.70;100.00
24230;BME280;12362;50.004;8.006;2023-07-13T04:57:57;100589.06;;;17.77;100.00
24230;BME280;12362;50.004;8.006;2023-07-13T05:00:26;100586.78;;;17.73;100.00
24230;BME280;12362;50.004;8.006;2023-07-13T05:02:53;100584.22;;;17.95;100.00
24230;BME280;12362;50.004;8.006;2023-07-13T05:05:19;100582.69;;;18.03;100.00
24230;BME280;12362;50.004;8.006;2023-07-13T05:07:44;100592.47;;;18.01;100.00
24230;BME280;12362;50.004;8.006;2023-07-13T05:10:10;100587.84;;;18.05;100.00
24230;BME280;12362;50.004;8.006;2023-07-13T05:12:35;100592.38;;;18.14;100.00
24230;BME280;12362;50.004;8.006;2023-07-13T05:15:02;100592.75;;;18.20;100.00
24230;BME280;12362;50.004;8.006;2023-07-13T05:17:28;100591.72;;;18.23;100.00
24230;BME280;12362;50.004;8.006;2023-07-13T05:19:53;100593.75;;;18.41;100.00
24230;BME280;12362;50.004;8.006;2023-07-13T05:22:19;100599.50;;;18.57;100.00
24230;BME280;12362;50.004;8.006;2023-07-13T05:24:44;100597.34;;;18.62;100.00
24230;BME280;12362;50.004;8.006;2023-07-13T05:27:09;100595.78;;;18.70;100.00
24230;BME280;12362;50.004;8.006;2023-07-13T05:29:35;100591.81;;;18.87;100.00
24230;BME280;12362;50.004;8.006;2023-07-13T05:32:00;100593.97;;;19.15;100.00
24230;BME280;12362;50.004;8.006;2023-07-13T05:34:26;100591.88;;;19.29;100.00
24230;BME280;12362;50.004;8.006;2023-07-13T05:36:52;100597.25;;;19.38;97.56
24230;BME280;12362;50.004;8.006;2023-07-13T05:39:18;100588.81;;;19.44;97.17
24230;BME280;12362;50.004;8.006;2023-07-13T05:41:44;100593.22;;;19.55;96.20
24230;BME280;12362;50.004;8.006;2023-07-13T05:44:09;100592.59;;;19.62;95.37
24230;BME280;12362;50.004;8.006;2023-07-13T05:46:35;100584.97;;;19.80;95.92
24230;BME280;12362;50.004;8.006;2023-07-13T05:49:00;100583.56;;;19.96;95.82
24230;BME280;12362;50.004;8.006;2023-07-13T05:51:26;100585.97;;;19.99;92.52
24230;BME280;12362;50.004;8.006;2023-07-13T05:53:51;100586.59;;;20.12;91.78
24230;BME280;12362;50.004;8.006;2023-07-13T05:56:17;100584.72;;;20.23;89.92
24230;BME280;12362;50.004;8.006;2023-07-13T05:58:42;100573.91;;;20.26;87.61
24230;BME280;12362;50.004;8.006;2023-07-13T06:01:12;100578.94;;;20.39;86.19
24230;BME280;12362;50.004;8.006;2023-07-13T06:03:37;100583.06;;;20.52;86.88
24230;BME280;12362;50.004;8.006;2023-07-13T06:06:08;100586.91;;;20.48;82.53
24230;BME280;12362;50.004;8.006;2023-07-13T06:08:35;100594.91;;;20.67;82.57
24230;BME280;12362;50.004;8.006;2023-07-13T06:11:10;100587.13;;;21.05;81.61
24230;BME280;12362;50.004;8.006;2023-07-13T06:13:37;100586.75;;;21.28;79.70
24230;BME280;12362;50.004;8.006;2023-07-13T06:16:03;100587.03;;;21.35;78.96
24230;BME280;12362;50.004;8.006;2023-07-13T06:18:36;100581.88;;;21.33;76.42
24230;BME280;12362;50.004;8.006;2023-07-13T06:21:15;100587.19;;;21.52;74.89
24230;BME280;12362;50.004;8.006;2023-07-13T06:23:42;100576.53;;;21.73;73.58
24230;BME280;12362;50.004;8.006;2023-07-13T06:26:08;100579.25;;;21.99;69.36
24230;BME280;12362;50.004;8.006;2023-07-13T06:28:35;100581.59;;;22.02;69.79
24230;BME280;12362;50.004;8.006;2023-07-13T06:31:01;100576.69;;;22.36;68.18
24230;BME280;12362;50.004;8.006;2023-07-13T06:33:27;100581.00;;;22.18;67.84
24230;BME280;12362;50.004;8.006;2023-07-13T06:35:52;100581.97;;;22.36;64.89
24230;BME280;12362;50.004;8.006;2023-07-13T06:38:20;100586.06;;;22.84;65.08
24230;BME280;12362;50.004;8.006;2023-07-13T06:40:45;100585.19;;;23.20;63.62
24230;BME280;12362;50.004;8.006;2023-07-13T06:43:11;100580.50;;;23.14;62.44
24230;BME280;12362;50.004;8.006;2023-07-13T06:45:42;100579.53;;;23.50;60.79
24230;BME280;12362;50.004;8.006;2023-07-13T06:48:09;100580.41;;;23.23;60.20
24230;BME280;12362;50.004;8.006;2023-07-13T06:50:34;100585.88;;;23.22;60.15
24230;BME280;12362;50.004;8.006;2023-07-13T06:53:00;100588.03;;;23.53;59.69
24230;BME280;12362;50.004;8.006;2023-07-13T06:55:26;100579.53;;;23.67;59.09
24230;BME280;12362;50.004;8.006;2023-07-13T06:57:51;100573.16;;;23.78;57.51
24230;BME280;12362;50.004;8.006;2023-07-13T07:00:17;100581.06;;;23.52;59.21
24230;BME280;12362;50.004;8.006;2023-07-13T07:02:42;100584.16;;;23.65;57.88
24230;BME280;12362;50.004;8.006;2023-07-13T07:05:08;100590.81;;;23.52;56.84
24230;BME280;12362;50.004;8.006;2023-07-13T07:07:33;100583.69;;;23.35;57.64
24230;BME280;12362;50.004;8.006;2023-07-13T07:09:59;100592.00;;;23.40;58.28
24230;BME280;12362;50.004;8.006;2023-07-13T07:12:24;100590.69;;;24.13;56.95
24230;BME280;12362;50.004;8.006;2023-07-13T07:14:50;100601.41;;;23.87;57.28
24230;BME280;12362;50.004;8.006;2023-07-13T07:17:15;100590.81;;;24.04;57.27
24230;BME280;12362;50.004;8.006;2023-07-13T07:19:44;100589.97;;;24.54;55.39
24230;BME280;12362;50.004;8.006;2023-07-13T07:22:09;100604.16;;;24.20;55.47
24230;BME280;12362;50.004;8.006;2023-07-13T07:24:35;100601.25;;;24.31;55.54
24230;BME280;12362;50.004;8.006;2023-07-13T07:27:00;100616.38;;;24.30;55.14
24230;BME280;12362;50.004;8.006;2023-07-13T07:29:28;100605.06;;;24.79;54.50
24230;BME280;12362;50.004;8.006;2023-07-13T07:31:59;100612.81;;;24.73;54.50
24230;BME280;12362;50.004;8.006;2023-07-13T07:34:57;100605.88;;;25.13;53.54
24230;BME280;12362;50.004;8.006;2023-07-13T07:38:11;100615.78;;;25.03;53.22
24230;BME280;12362;50.004;8.006;2023-07-13T07:40:56;100598.66;;;25.78;52.92
24230;BME280;12362;50.004;8.006;2023-07-13T07:43:56;100601.41;;;25.21;51.95
24230;BME280;12362;50.004;8.006;2023-07-13T07:46:49;100609.28;;;25.05;53.64
24230;BME280;12362;50.004;8.006;2023-07-13T07:49:28;100598.13;;;25.59;52.31
24230;BME280;12362;50.004;8.006;2023-07-13T07:52:42;100599.34;;;25.88;52.56
24230;BME280;12362;50.004;8.006;2023-07-13T07:55:07;100601.28;;;25.39;52.28
24230;BME280;12362;50.004;8.006;2023-07-13T07:57:41;100607.25;;;24.33;55.20
24230;BME280;12362;50.004;8.006;2023-07-13T08:03:45;100609.84;;;24.25;55.35
24230;BME280;12362;50.004;8.006;2023-07-13T08:09:41;100604.16;;;26.17;50.06
24230;BME280;12362;50.004;8.006;2023-07-13T08:15:34;100602.47;;;26.08;50.95
24230;BME280;12362;50.004;8.006;2023-07-13T08:18:28;100590.94;;;26.55;47.55
24230;BME280;12362;50.004;8.006;2023-07-13T08:21:29;100596.56;;;26.68;46.96
24230;BME280;12362;50.004;8.006;2023-07-13T08:24:03;100590.75;;;27.64;46.16
24230;BME280;12362;50.004;8.006;2023-07-13T08:30:03;100608.50;;;25.78;45.97
24230;BME280;12362;50.004;8.006;2023-07-13T08:32:32;100594.25;;;27.64;45.91
24230;BME280;12362;50.004;8.006;2023-07-13T08:35:24;100592.81;;;27.76;43.99
24230;BME280;12362;50.004;8.006;2023-07-13T08:37:52;100597.53;;;26.75;44.26
24230;BME280;12362;50.004;8.006;2023-07-13T08:40:19;100605.78;;;27.04;45.06
24230;BME280;12362;50.004;8.006;2023-07-13T08:42:54;100589.47;;;27.29;43.43
24230;BME280;12362;50.004;8.006;2023-07-13T08:48:04;100593.28;;;26.96;44.70
24230;BME280;12362;50.004;8.006;2023-07-13T08:50:37;100585.34;;;27.94;42.93
24230;BME280;12362;50.004;8.006;2023-07-13T08:53:09;100583.41;;;28.68;42.05
24230;BME280;12362;50.004;8.006;2023-07-13T08:55:37;100574.44;;;29.40;40.87
24230;BME280;12362;50.004;8.006;2023-07-13T08:58:15;100581.44;;;27.82;41.12
24230;BME280;12362;50.004;8.006;2023-07-13T09:01:21;100589.78;;;27.79;42.78
24230;BME280;12362;50.004;8.006;2023-07-13T09:06:39;100570.22;;;28.52;40.75
24230;BME280;12362;50.004;8.006;2023-07-13T09:09:28;100593.97;;;27.29;42.37
24230;BME280;12362;50.004;8.006;2023-07-13T09:15:08;100600.66;;;26.86;44.03
24230;BME280;12362;50.004;8.006;2023-07-13T09:21:17;100601.31;;;26.18;44.03
24230;BME280;12362;50.004;8.006;2023-07-13T09:24:01;100591.59;;;27.03;41.16
24230;BME280;12362;50.004;8.006;2023-07-13T09:26:31;100584.66;;;27.25;43.54
24230;BME280;12362;50.004;8.006;2023-07-13T09:29:54;100581.53;;;28.25;41.73
24230;BME280;12362;50.004;8.006;2023-07-13T09:32:39;100575.75;;;28.51;40.56
24230;BME280;12362;50.004;8.006;2023-07-13T09:36:05;100575.56;;;28.23;39.78
24230;BME280;12362;50.004;8.006;2023-07-13T09:38:47;100584.72;;;27.17;42.02
24230;BME280;12362;50.004;8.006;2023-07-13T09:41:45;100571.19;;;27.63;40.75
24230;BME280;12362;50.004;8.006;2023-07-13T09:47:23;100578.88;;;27.13;44.41
24230;BME280;12362;50.004;8.006;2023-07-13T09:50:17;100587.84;;;27.20;40.72
24230;BME280;12362;50.004;8.006;2023-07-13T09:56:24;100568.88;;;28.19;39.42
24230;BME280;12362;50.004;8.006;2023-07-13T09:59:23;100588.25;;;27.32;40.84
24230;BME280;12362;50.004;8.006;2023-07-13T10:02:00;100593.44;;;28.37;40.48
24230;BME280;12362;50.004;8.006;2023-07-13T10:04:59;100589.53;;;28.25;38.79
24230;BME280;12362;50.004;8.006;2023-07-13T10:07:38;100581.31;;;27.23;39.88
24230;BME280;12362;50.004;8.006;2023-07-13T10:10:18;100592.72;;;28.06;39.40
24230;BME280;12362;50.004;8.006;2023-07-13T10:12:58;100588.66;;;28.90;39.97
24230;BME280;12362;50.004;8.006;2023-07-13T10:15:35;100583.28;;;29.40;37.98
24230;BME280;12362;50.004;8.006;2023-07-13T10:18:08;100582.72;;;27.86;39.64
24230;BME280;12362;50.004;8.006;2023-07-13T10:21:23;100584.78;;;27.31;39.78
24230;BME280;12362;50.004;8.006;2023-07-13T10:24:24;100580.09;;;28.52;39.94
24230;BME280;12362;50.004;8.006;2023-07-13T10:27:17;100577.25;;;29.17;38.45
24230;BME280;12362;50.004;8.006;2023-07-13T10:30:04;100553.78;;;29.75;37.22
24230;BME280;12362;50.004;8.006;2023-07-13T10:32:45;100579.53;;;28.42;38.93
24230;BME280;12362;50.004;8.006;2023-07-13T10:35:24;100582.09;;;28.78;37.69
24230;BME280;12362;50.004;8.006;2023-07-13T10:38:26;100578.34;;;29.58;37.02
24230;BME280;12362;50.004;8.006;2023-07-13T10:41:21;100575.31;;;28.47;37.80
24230;BME280;12362;50.004;8.006;2023-07-13T10:43:58;100576.47;;;27.49;39.67
24230;BME280;12362;50.004;8.006;2023-07-13T10:46:33;100559.78;;;29.00;37.40
24230;BME280;12362;50.004;8.006;2023-07-13T10:49:07;100567.97;;;27.75;39.29
24230;BME280;12362;50.004;8.006;2023-07-13T10:51:35;100578.47;;;27.77;39.16
24230;BME280;12362;50.004;8.006;2023-07-13T10:54:30;100576.47;;;27.49;38.96
24230;BME280;12362;50.004;8.006;2023-07-13T10:57:20;100589.25;;;27.00;39.65
24230;BME280;12362;50.004;8.006;2023-07-13T11:06:31;100576.56;;;28.80;37.18
24230;BME280;12362;50.004;8.006;2023-07-13T11:09:43;100561.78;;;29.34;36.86
24230;BME280;12362;50.004;8.006;2023-07-13T11:12:27;100565.19;;;30.05;36.38
24230;BME280;12362;50.004;8.006;2023-07-13T11:15:10;100574.06;;;29.28;35.58
24230;BME280;12362;50.004;8.006;2023-07-13T11:17:56;100562.94;;;29.25;34.88
24230;BME280;12362;50.004;8.006;2023-07-13T11:20:44;100548.56;;;30.90;34.89
24230;BME280;12362;50.004;8.006;2023-07-13T11:23:20;100562.34;;;30.47;35.53
24230;BME280;12362;50.004;8.006;2023-07-13T11:32:21;100567.81;;;29.77;35.51
24230;BME280;12362;50.004;8.006;2023-07-13T11:34:53;100574.06;;;29.07;35.86
24230;BME280;12362;50.004;8.006;2023-07-13T11:37:23;100577.59;;;28.64;37.55
24230;BME280;12362;50.004;8.006;2023-07-13T11:39:54;100579.25;;;28.94;37.11
24230;BME280;12362;50.004;8.006;2023-07-13T11:42:21;100583.06;;;27.61;40.14
24230;BME280;12362;50.004;8.006;2023-07-13T11:44:53;100583.84;;;27.47;39.95
24230;BME280;12362;50.004;8.006;2023-07-13T11:47:28;100577.13;;;28.61;37.15
24230;BME280;12362;50.004;8.006;2023-07-13T11:50:03;100557.19;;;30.45;35.72
24230;BME280;12362;50.004;8.006;2023-07-13T11:52:36;100559.47;;;30.42;35.72
24230;BME280;12362;50.004;8.006;2023-07-13T11:55:42;100557.81;;;30.41;36.98
24230;BME280;12362;50.004;8.006;2023-07-13T11:58:26;100571.09;;;29.17;36.44
24230;BME280;12362;50.004;8.006;2023-07-13T12:01:04;100581.81;;;28.73;37.31
24230;BME280;12362;50.004;8.006;2023-07-13T12:04:10;100590.63;;;27.79;38.28
24230;BME280;12362;50.004;8.006;2023-07-13T12:06:57;100590.81;;;27.78;38.58
24230;BME280;12362;50.004;8.006;2023-07-13T12:09:39;100588.66;;;27.21;38.44
24230;BME280;12362;50.004;8.006;2023-07-13T12:12:16;100590.41;;;27.59;39.69
24230;BME280;12362;50.004;8.006;2023-07-13T12:14:45;100587.22;;;27.41;38.34
24230;BME280;12362;50.004;8.006;2023-07-13T12:17:22;100584.22;;;27.66;39.52
24230;BME280;12362;50.004;8.006;2023-07-13T12:19:52;100585.59;;;28.36;37.54
24230;BME280;12362;50.004;8.006;2023-07-13T12:22:19;100573.25;;;28.92;37.25
24230;BME280;12362;50.004;8.006;2023-07-13T12:24:47;100582.00;;;28.29;37.85
24230;BME280;12362;50.004;8.006;2023-07-13T12:27:20;100583.91;;;27.83;39.19
24230;BME280;12362;50.004;8.006;2023-07-13T12:29:53;100595.53;;;27.15;38.72
24230;BME280;12362;50.004;8.006;2023-07-13T12:32:24;100594.44;;;27.55;39.30
24230;BME280;12362;50.004;8.006;2023-07-13T12:34:55;100595.38;;;27.69;38.59
24230;BME280;12362;50.004;8.006;2023-07-13T12:37:21;100600.06;;;27.37;39.00
24230;BME280;12362;50.004;8.006;2023-07-13T12:39:48;100599.59;;;27.86;38.45
24230;BME280;12362;50.004;8.006;2023-07-13T12:42:24;100596.84;;;28.09;37.64
24230;BME280;12362;50.004;8.006;2023-07-13T12:45:29;100594.34;;;27.93;38.63
24230;BME280;12362;50.004;8.006;2023-07-13T12:48:13;100592.84;;;27.90;38.10
24230;BME280;12362;50.004;8.006;2023-07-13T12:50:41;100592.41;;;28.24;38.80
24230;BME280;12362;50.004;8.006;2023-07-13T12:53:16;100605.25;;;27.61;36.99
24230;BME280;12362;50.004;8.006;2023-07-13T12:55:50;100606.72;;;27.11;37.55
24230;BME280;12362;50.004;8.006;2023-07-13T12:58:26;100600.28;;;27.58;39.59
24230;BME280;12362;50.004;8.006;2023-07-13T13:00:55;100599.09;;;27.61;39.38
24230;BME280;12362;50.004;8.006;2023-07-13T13:03:38;100602.84;;;27.21;38.67
24230;BME280;12362;50.004;8.006;2023-07-13T13:08:49;100591.31;;;27.51;38.16
24230;BME280;12362;50.004;8.006;2023-07-13T13:11:15;100605.06;;;27.10;39.26
24230;BME280;12362;50.004;8.006;2023-07-13T13:13:42;100601.44;;;26.95;39.07
24230;BME280;12362;50.004;8.006;2023-07-13T13:18:45;100591.81;;;27.24;39.01
24230;BME280;12362;50.004;8.006;2023-07-13T13:21:15;100602.47;;;27.24;39.57
24230;BME280;12362;50.004;8.006;2023-07-13T13:23:41;100604.94;;;27.03;39.67
24230;BME280;12362;50.004;8.006;2023-07-13T13:26:10;100600.72;;;27.39;38.62
24230;BME280;12362;50.004;8.006;2023-07-13T13:28:36;100610.00;;;27.21;40.31
24230;BME280;12362;50.004;8.006;2023-07-13T13:31:02;100607.19;;;27.22;39.47
24230;BME280;12362;50.004;8.006;2023-07-13T13:33:27;100604.50;;;27.53;39.13
24230;BME280;12362;50.004;8.006;2023-07-13T13:35:53;100606.19;;;27.46;39.02
24230;BME280;12362;50.004;8.006;2023-07-13T13:38:20;100601.56;;;27.70;39.86
24230;BME280;12362;50.004;8.006;2023-07-13T13:40:47;100602.72;;;27.67;40.04
24230;BME280;12362;50.004;8.006;2023-07-13T13:43:22;100610.84;;;27.21;41.46
24230;BME280;12362;50.004;8.006;2023-07-13T13:45:52;100616.81;;;26.85;41.10
24230;BME280;12362;50.004;8.006;2023-07-13T13:48:31;100626.13;;;26.27;41.66
24230;BME280;12362;50.004;8.006;2023-07-13T13:51:16;100631.28;;;25.88;42.62
24230;BME280;12362;50.004;8.006;2023-07-13T13:53:44;100617.97;;;26.04;43.06
24230;BME280;12362;50.004;8.006;2023-07-13T13:56:09;100627.13;;;26.10;43.19
24230;BME280;12362;50.004;8.006;2023-07-13T13:58:35;100621.97;;;26.08;42.63
24230;BME280;12362;50.004;8.006;2023-07-13T14:01:00;100629.72;;;25.70;43.34
24230;BME280;12362;50.004;8.006;2023-07-13T14:03:26;100629.78;;;26.10;43.49